createdAt,value
2023-03-31T00:01:15.172Z,0.52
2023-03-31T00:05:15.260Z,0.51
2023-03-31T00:09:15.330Z,0.52
2023-03-31T00:13:15.445Z,0.51
2023-03-31T00:17:15.528Z,0.52
2023-03-31T00:21:15.667Z,0.51
2023-03-31T00:25:15.817Z,0.51
2023-03-31T00:29:15.938Z,0.50
2023-03-31T00:33:16.045Z,0.51
2023-03-31T00:37:16.167Z,0.51
2023-03-31T00:41:16.326Z,0.50
2023-03-31T00:45:16.463Z,0.53
2023-03-31T00:49:16.478Z,0.51
2023-03-31T00:53:16.617Z,0.50
2023-03-31T00:57:16.789Z,0.50
2023-03-31T01:01:16.874Z,0.52
2023-03-31T01:05:16.940Z,0.51
2023-03-31T01:09:17.087Z,0.51
2023-03-31T01:13:17.211Z,0.51
2023-03-31T01:17:17.405Z,0.51
2023-03-31T01:21:17.403Z,0.52
2023-03-31T01:25:17.564Z,0.52
2023-03-31T01:29:17.674Z,0.51
2023-03-31T01:33:17.862Z,0.51
2023-03-31T01:37:17.962Z,0.51
2023-03-31T01:41:18.727Z,0.51
2023-03-31T01:45:18.179Z,0.51
2023-03-31T01:49:18.299Z,0.51
2023-03-31T01:53:18.426Z,0.52
2023-03-31T01:57:18.533Z,0.51
2023-03-31T02:01:18.617Z,0.51
2023-03-31T02:05:18.736Z,0.51
2023-03-31T02:09:18.834Z,0.51
2023-03-31T02:13:18.969Z,0.51
2023-03-31T02:17:19.090Z,0.52
2023-03-31T02:21:19.160Z,0.51
2023-03-31T02:25:19.298Z,0.51
2023-03-31T02:29:19.374Z,0.50
2023-03-31T02:33:19.505Z,0.51
2023-03-31T02:37:19.687Z,0.51
2023-03-31T02:41:19.784Z,0.52
2023-03-31T02:45:19.917Z,0.51
2023-03-31T02:49:20.064Z,0.50
2023-03-31T02:53:20.247Z,0.51
2023-03-31T02:57:20.418Z,0.51
2023-03-31T03:01:20.542Z,0.52
2023-03-31T03:05:20.628Z,0.52
2023-03-31T03:09:20.760Z,0.50
2023-03-31T03:13:20.889Z,0.52
2023-03-31T03:17:21.053Z,0.51
2023-03-31T03:21:21.231Z,0.51
2023-03-31T03:25:21.317Z,0.50
2023-03-31T03:29:21.445Z,0.51
2023-03-31T03:33:21.611Z,0.51
2023-03-31T03:37:21.753Z,0.53
2023-03-31T03:41:21.915Z,0.52
2023-03-31T03:45:22.097Z,0.51
2023-03-31T03:49:22.250Z,0.52
2023-03-31T03:53:22.401Z,0.50
2023-03-31T03:57:22.632Z,0.51
2023-03-31T04:01:22.730Z,0.52
2023-03-31T04:05:22.930Z,0.52
2023-03-31T04:09:23.085Z,0.52
2023-03-31T04:13:23.239Z,0.51
2023-03-31T04:17:23.387Z,0.51
2023-03-31T04:21:23.541Z,0.52
2023-03-31T04:25:23.714Z,0.52
2023-03-31T04:29:23.872Z,0.52
2023-03-31T04:33:24.010Z,0.53
2023-03-31T04:37:24.224Z,0.51
2023-03-31T04:41:24.440Z,0.51
2023-03-31T04:45:24.683Z,0.51
2023-03-31T04:49:24.727Z,0.52
2023-03-31T04:53:24.910Z,0.52
2023-03-31T04:57:25.161Z,0.52
2023-03-31T05:01:25.293Z,0.51
2023-03-31T05:05:25.485Z,0.52
2023-03-31T05:09:25.640Z,0.51
2023-03-31T05:13:25.774Z,0.53
2023-03-31T05:17:25.969Z,0.52
2023-03-31T05:21:26.099Z,0.51
2023-03-31T05:25:26.252Z,0.52
2023-03-31T05:29:26.395Z,0.52
2023-03-31T05:33:26.551Z,0.51
2023-03-31T05:37:26.731Z,0.53
2023-03-31T05:41:26.799Z,0.54
2023-03-31T05:45:27.274Z,0.61
2023-03-31T05:49:27.081Z,0.59
2023-03-31T05:53:27.263Z,0.60
2023-03-31T05:57:27.499Z,0.56
2023-03-31T06:01:27.906Z,0.53
2023-03-31T06:05:27.754Z,0.51
2023-03-31T06:09:27.890Z,0.51
2023-03-31T06:13:28.284Z,0.55
2023-03-31T06:17:28.039Z,0.56
2023-03-31T06:21:27.947Z,0.63
2023-03-31T06:25:32.382Z,0.75
2023-03-31T06:29:28.877Z,0.84
2023-03-31T06:33:27.854Z,1.06
2023-03-31T06:37:27.811Z,1.18
2023-03-31T06:41:27.770Z,1.32
2023-03-31T06:45:27.804Z,1.41
2023-03-31T06:49:28.340Z,1.53
2023-03-31T06:53:27.758Z,1.69
2023-03-31T06:57:28.392Z,1.33
2023-03-31T07:01:28.031Z,1.40
2023-03-31T07:05:28.031Z,1.58
2023-03-31T07:09:28.015Z,1.83
2023-03-31T07:13:28.076Z,2.02
2023-03-31T07:17:28.355Z,2.22
2023-03-31T07:21:28.380Z,2.38
2023-03-31T07:25:28.101Z,2.69
2023-03-31T07:29:28.294Z,2.85
2023-03-31T07:33:28.029Z,3.10
2023-03-31T07:37:27.990Z,3.44
2023-03-31T07:41:28.349Z,3.51
2023-03-31T07:45:28.300Z,4.05
2023-03-31T07:49:27.892Z,3.96
2023-03-31T07:53:27.847Z,4.26
2023-03-31T07:57:27.861Z,2.94
2023-03-31T08:01:27.781Z,3.38
2023-03-31T08:05:27.795Z,2.93
2023-03-31T08:09:27.840Z,2.94
2023-03-31T08:13:27.944Z,2.81
2023-03-31T08:17:27.932Z,2.77
2023-03-31T08:21:27.886Z,2.72
2023-03-31T08:25:27.851Z,2.71
2023-03-31T08:29:27.778Z,3.02
2023-03-31T08:33:27.826Z,3.00
2023-03-31T08:37:27.829Z,2.92
2023-03-31T08:41:27.651Z,3.37
2023-03-31T08:45:27.968Z,3.56
2023-03-31T08:49:27.843Z,4.95
2023-03-31T08:53:27.813Z,3.21
2023-03-31T08:57:27.724Z,4.08
2023-03-31T09:01:27.562Z,4.43
2023-03-31T09:05:27.724Z,4.80
2023-03-31T09:09:28.378Z,5.50
2023-03-31T09:13:27.991Z,6.03
2023-03-31T09:17:28.117Z,6.39
2023-03-31T09:21:28.214Z,6.47
2023-03-31T09:25:28.323Z,6.75
2023-03-31T09:29:28.328Z,7.41
2023-03-31T09:33:28.295Z,7.38
2023-03-31T09:37:28.308Z,7.50
2023-03-31T09:41:28.602Z,7.94
2023-03-31T09:45:28.363Z,7.60
2023-03-31T09:49:28.341Z,7.42
2023-03-31T09:53:28.338Z,6.79
2023-03-31T09:57:30.563Z,6.49
2023-03-31T10:01:28.418Z,5.84
2023-03-31T10:05:28.893Z,4.96
2023-03-31T10:09:28.346Z,4.27
2023-03-31T10:13:28.277Z,4.01
2023-03-31T10:17:28.307Z,3.47
2023-03-31T10:21:28.241Z,3.16
2023-03-31T10:25:28.422Z,2.77
2023-03-31T10:29:28.152Z,2.32
2023-03-31T10:33:28.481Z,1.34
2023-03-31T10:37:28.398Z,0.51
2023-03-31T10:41:28.992Z,0.51
2023-03-31T10:45:37.174Z,0.59
2023-03-31T10:49:29.656Z,0.36
2023-03-31T10:53:28.594Z,0.50
2023-03-31T10:57:28.797Z,0.65
2023-03-31T11:01:28.789Z,0.55
2023-03-31T11:05:28.657Z,0.52
2023-03-31T11:09:28.640Z,0.53
2023-03-31T11:13:28.596Z,0.51
2023-03-31T11:17:28.617Z,0.59
2023-03-31T11:21:28.891Z,0.60
2023-03-31T11:25:28.480Z,0.51
2023-03-31T11:29:28.937Z,0.87
2023-03-31T11:33:28.862Z,1.03
2023-03-31T11:37:28.386Z,1.17
2023-03-31T11:41:28.310Z,1.51
2023-03-31T11:45:28.299Z,1.78
2023-03-31T11:49:28.253Z,1.98
2023-03-31T11:53:28.396Z,2.08
2023-03-31T11:57:12.236Z,0.50
2023-03-31T11:58:12.222Z,0.50
2023-03-31T11:59:12.194Z,0.50
2023-03-31T12:00:12.208Z,0.50
2023-03-31T12:01:12.200Z,0.50
2023-03-31T12:02:12.208Z,0.53
2023-03-31T12:03:12.358Z,0.52
2023-03-31T12:04:12.226Z,0.54
2023-03-31T12:05:12.167Z,0.56
2023-03-31T12:06:12.213Z,0.54
2023-03-31T12:07:12.138Z,0.55
2023-03-31T12:08:12.141Z,0.53
2023-03-31T12:09:12.132Z,0.58
2023-03-31T12:10:12.130Z,0.57
2023-03-31T12:11:12.130Z,0.55
2023-03-31T12:12:12.103Z,0.58
2023-03-31T12:13:12.094Z,0.57
2023-03-31T12:14:12.108Z,0.55
2023-03-31T12:15:12.102Z,0.57
2023-03-31T12:16:12.080Z,0.60
2023-03-31T12:17:12.064Z,0.75
2023-03-31T12:18:12.057Z,0.78
2023-03-31T12:19:12.084Z,1.10
2023-03-31T12:20:12.073Z,1.29
2023-03-31T12:21:12.031Z,1.51
2023-03-31T12:22:12.067Z,1.51
2023-03-31T12:23:12.048Z,1.73
2023-03-31T12:24:12.006Z,2.18
2023-03-31T12:25:12.046Z,2.56
2023-03-31T12:26:12.003Z,2.82
2023-03-31T12:27:11.992Z,3.49
2023-03-31T12:28:11.986Z,3.08
2023-03-31T12:29:12.018Z,2.43
2023-03-31T12:30:11.965Z,2.66
2023-03-31T12:31:12.015Z,2.48
2023-03-31T12:32:11.961Z,2.32
2023-03-31T12:33:12.016Z,2.34
2023-03-31T12:34:11.955Z,2.04
2023-03-31T12:35:11.933Z,1.97
2023-03-31T12:36:11.967Z,1.53
2023-03-31T12:37:11.948Z,1.54
2023-03-31T12:38:12.018Z,1.45
2023-03-31T12:39:11.978Z,1.51
2023-03-31T12:40:12.102Z,1.42
2023-03-31T12:41:12.051Z,1.41
2023-03-31T12:42:12.077Z,1.37
2023-03-31T12:43:12.064Z,1.33
2023-03-31T12:44:12.079Z,1.33
2023-03-31T12:45:12.135Z,1.29
2023-03-31T12:46:12.135Z,1.28
2023-03-31T12:47:12.153Z,1.27
2023-03-31T12:48:12.217Z,1.27
2023-03-31T12:49:12.242Z,1.25
2023-03-31T12:50:12.251Z,1.24
2023-03-31T12:51:12.205Z,1.22
2023-03-31T12:52:12.239Z,1.20
2023-03-31T12:53:12.259Z,1.17
2023-03-31T12:54:12.245Z,1.19
2023-03-31T12:55:12.252Z,1.16
2023-03-31T12:56:12.276Z,1.16
2023-03-31T12:57:12.295Z,1.15
2023-03-31T12:58:12.369Z,1.14
2023-03-31T12:59:12.285Z,1.13
2023-03-31T13:00:12.377Z,1.15
2023-03-31T13:01:12.616Z,0.93
2023-03-31T13:02:12.440Z,0.45
2023-03-31T13:03:12.396Z,0.35
2023-03-31T13:04:12.415Z,0.39
2023-03-31T13:05:12.489Z,0.48
2023-03-31T13:06:12.556Z,0.53
2023-03-31T13:07:27.326Z,0.58
2023-03-31T13:08:13.542Z,0.59
2023-03-31T13:09:12.540Z,0.61
2023-03-31T13:10:12.761Z,0.69
2023-03-31T13:11:12.532Z,0.81
2023-03-31T13:12:12.487Z,1.01
2023-03-31T13:13:12.490Z,0.99
2023-03-31T13:14:12.466Z,1.07
2023-03-31T13:15:12.454Z,1.02
2023-03-31T13:16:12.681Z,1.10
2023-03-31T13:17:12.627Z,1.14
2023-03-31T13:18:12.641Z,1.24
2023-03-31T13:19:12.670Z,1.33
2023-03-31T13:20:12.692Z,1.37
2023-03-31T13:21:12.794Z,1.38
2023-03-31T13:22:12.776Z,1.51
2023-03-31T13:23:12.781Z,1.50
2023-03-31T13:24:12.807Z,1.47
2023-03-31T13:25:12.854Z,1.53
2023-03-31T13:26:13.089Z,1.56
2023-03-31T13:27:12.843Z,1.52
2023-03-31T13:28:12.899Z,1.62
2023-03-31T13:29:12.867Z,1.66
2023-03-31T13:30:12.906Z,1.69
2023-03-31T13:31:12.889Z,1.73
2023-03-31T13:32:12.974Z,1.79
2023-03-31T13:33:12.909Z,1.79
2023-03-31T13:34:12.921Z,1.78
2023-03-31T13:35:12.900Z,1.85
2023-03-31T13:36:12.951Z,1.89
2023-03-31T13:37:12.911Z,1.87
2023-03-31T13:38:12.925Z,1.92
2023-03-31T13:39:13.278Z,1.92
2023-03-31T13:40:12.898Z,1.93
2023-03-31T13:41:12.900Z,1.97
2023-03-31T13:42:12.904Z,1.99
2023-03-31T13:43:12.935Z,2.00
2023-03-31T13:44:12.909Z,2.00
2023-03-31T13:45:12.955Z,2.00
2023-03-31T13:46:13.298Z,2.05
2023-03-31T13:47:12.882Z,2.00
2023-03-31T13:48:12.875Z,2.04
2023-03-31T13:49:12.852Z,2.02
2023-03-31T13:50:12.866Z,2.05
2023-03-31T13:51:12.873Z,2.05
2023-03-31T13:52:12.905Z,2.02
2023-03-31T13:53:12.874Z,2.03
2023-03-31T13:54:12.857Z,1.99
2023-03-31T13:55:14.427Z,1.98
2023-03-31T13:56:13.020Z,2.01
2023-03-31T13:57:12.934Z,2.00
2023-03-31T13:58:25.334Z,2.00
2023-03-31T13:59:13.886Z,2.01
2023-03-31T14:00:12.824Z,2.01
2023-03-31T14:01:12.872Z,2.02
2023-03-31T14:02:12.838Z,1.96
2023-03-31T14:03:12.892Z,1.99
2023-03-31T14:04:12.783Z,1.98
2023-03-31T14:05:12.793Z,2.02
2023-03-31T14:06:12.778Z,2.01
2023-03-31T14:07:12.820Z,2.04
2023-03-31T14:08:12.799Z,2.00
2023-03-31T14:09:12.744Z,1.96
2023-03-31T14:10:12.748Z,1.97
2023-03-31T14:11:12.774Z,1.96
2023-03-31T14:12:12.749Z,1.98
2023-03-31T14:13:12.732Z,1.93
2023-03-31T14:14:12.769Z,1.94
2023-03-31T14:15:12.704Z,1.91
2023-03-31T14:16:12.879Z,1.90
2023-03-31T14:17:12.725Z,1.90
2023-03-31T14:18:12.776Z,1.86
2023-03-31T14:19:13.419Z,1.89
2023-03-31T14:20:12.868Z,1.86
2023-03-31T14:21:13.128Z,1.91
2023-03-31T14:22:12.933Z,1.87
2023-03-31T14:23:12.993Z,1.88
2023-03-31T14:24:12.975Z,1.87
2023-03-31T14:25:13.028Z,1.87
2023-03-31T14:26:13.061Z,1.92
2023-03-31T14:27:13.169Z,1.92
2023-03-31T14:28:13.216Z,1.88
2023-03-31T14:29:13.277Z,1.86
2023-03-31T14:30:13.360Z,1.83
2023-03-31T14:31:13.843Z,1.85
2023-03-31T14:32:13.448Z,1.81
2023-03-31T14:33:13.503Z,1.85
2023-03-31T14:34:13.575Z,1.85
2023-03-31T14:35:13.672Z,1.83
2023-03-31T14:36:13.690Z,1.75
2023-03-31T14:37:13.770Z,1.80
2023-03-31T14:38:13.816Z,1.77
2023-03-31T14:39:13.861Z,1.80
2023-03-31T14:40:13.918Z,1.78
2023-03-31T14:41:13.996Z,1.78
2023-03-31T14:42:14.085Z,1.78
2023-03-31T14:43:14.115Z,1.78
2023-03-31T14:44:14.189Z,1.79
2023-03-31T14:45:14.225Z,1.78
2023-03-31T14:46:14.338Z,1.74
2023-03-31T14:47:14.352Z,1.72
2023-03-31T14:48:14.416Z,1.74
2023-03-31T14:49:14.486Z,1.71
2023-03-31T14:50:14.520Z,1.72
2023-03-31T14:51:14.597Z,1.71
2023-03-31T14:52:14.666Z,1.73
2023-03-31T14:53:14.722Z,1.70
2023-03-31T14:54:14.788Z,1.69
2023-03-31T14:55:14.850Z,1.66
2023-03-31T14:56:14.921Z,1.64
2023-03-31T14:57:15.009Z,1.63
2023-03-31T14:58:15.036Z,1.60
2023-03-31T14:59:15.074Z,1.59
2023-03-31T15:00:15.224Z,1.66
2023-03-31T15:01:15.248Z,1.61
2023-03-31T15:02:15.250Z,1.61
2023-03-31T15:03:15.301Z,1.62
2023-03-31T15:04:15.361Z,1.59
2023-03-31T15:05:15.395Z,1.64
2023-03-31T15:06:15.436Z,1.58
2023-03-31T15:07:15.462Z,1.58
2023-03-31T15:08:15.544Z,1.57
2023-03-31T15:09:15.598Z,1.59
2023-03-31T15:10:15.600Z,1.56
2023-03-31T15:11:17.827Z,1.60
2023-03-31T15:12:15.657Z,1.63
2023-03-31T15:13:15.674Z,1.53
2023-03-31T15:14:15.635Z,1.58
2023-03-31T15:15:15.621Z,1.57
2023-03-31T15:16:15.628Z,1.54
2023-03-31T15:17:15.639Z,1.56
2023-03-31T15:18:15.625Z,1.57
2023-03-31T15:19:15.617Z,1.58
2023-03-31T15:20:16.456Z,1.59
2023-03-31T15:21:15.563Z,1.60
2023-03-31T15:22:15.572Z,1.58
2023-03-31T15:23:15.585Z,1.55
2023-03-31T15:24:15.596Z,1.53
2023-03-31T15:25:15.591Z,1.57
2023-03-31T15:26:15.552Z,1.52
2023-03-31T15:27:20.538Z,1.54
2023-03-31T15:28:16.531Z,1.54
2023-03-31T15:29:15.534Z,1.55
2023-03-31T15:30:15.540Z,1.55
2023-03-31T15:31:15.570Z,1.56
2023-03-31T15:32:15.658Z,1.53
2023-03-31T15:34:16.609Z,1.56
2023-03-31T15:36:16.529Z,1.56
2023-03-31T15:37:15.486Z,1.56
2023-03-31T15:38:15.485Z,1.52
2023-03-31T15:39:15.472Z,1.48
2023-03-31T15:40:15.511Z,1.48
2023-03-31T15:41:15.459Z,1.47
2023-03-31T15:42:15.454Z,1.47
2023-03-31T15:44:16.442Z,1.46
2023-03-31T15:45:15.408Z,1.46
2023-03-31T15:46:15.427Z,1.47
2023-03-31T15:47:15.401Z,1.47
2023-03-31T15:48:15.403Z,1.45
2023-03-31T15:49:15.378Z,1.48
2023-03-31T15:50:15.389Z,1.47
2023-03-31T15:51:15.399Z,1.49
2023-03-31T15:52:15.380Z,1.48
2023-03-31T15:53:15.360Z,1.46
2023-03-31T15:54:15.380Z,1.48
2023-03-31T15:55:15.500Z,1.45
2023-03-31T15:56:15.455Z,1.47
2023-03-31T15:57:15.496Z,1.46
2023-03-31T15:58:15.558Z,1.47
2023-03-31T15:59:15.583Z,1.48
2023-03-31T16:00:15.617Z,1.42
2023-03-31T16:01:15.703Z,1.48
2023-03-31T16:02:15.710Z,1.44
2023-03-31T16:03:15.785Z,1.47
2023-03-31T16:04:15.788Z,1.42
2023-03-31T16:05:26.506Z,1.43
2023-03-31T16:06:16.826Z,1.43
2023-03-31T16:07:15.822Z,1.43
2023-03-31T16:08:15.817Z,1.43
2023-03-31T16:09:16.628Z,1.42
2023-03-31T16:10:16.814Z,1.40
2023-03-31T16:11:15.794Z,1.42
2023-03-31T16:12:15.795Z,1.41
2023-03-31T16:13:15.773Z,1.38
2023-03-31T16:14:15.775Z,1.39
2023-03-31T16:15:15.768Z,1.40
2023-03-31T16:16:15.769Z,1.36
2023-03-31T16:17:15.784Z,1.38
2023-03-31T16:18:15.811Z,1.33
2023-03-31T16:19:15.869Z,1.35
2023-03-31T16:20:15.915Z,1.33
2023-03-31T16:21:15.987Z,1.36
2023-03-31T16:22:16.039Z,1.34
2023-03-31T16:23:16.081Z,1.34
2023-03-31T16:24:16.109Z,1.32
2023-03-31T16:25:16.135Z,1.29
2023-03-31T16:26:16.188Z,1.30
2023-03-31T16:27:16.202Z,1.31
2023-03-31T16:28:16.319Z,1.29
2023-03-31T16:29:16.334Z,1.28
2023-03-31T16:30:16.390Z,1.31
2023-03-31T16:31:16.507Z,1.28
2023-03-31T16:32:16.450Z,1.26
2023-03-31T16:33:16.548Z,1.26
2023-03-31T16:34:16.580Z,1.26
2023-03-31T16:35:16.644Z,1.23
2023-03-31T16:36:16.677Z,1.24
2023-03-31T16:37:16.742Z,1.25
2023-03-31T16:38:16.768Z,1.23
2023-03-31T16:39:16.829Z,1.26
2023-03-31T16:40:16.857Z,1.26
2023-03-31T16:41:16.897Z,1.24
2023-03-31T16:42:16.976Z,1.21
2023-03-31T16:43:17.011Z,1.23
2023-03-31T16:44:17.062Z,1.23
2023-03-31T16:45:17.116Z,1.25
2023-03-31T16:46:17.160Z,1.23
2023-03-31T16:47:27.467Z,1.24
2023-03-31T16:48:18.236Z,1.24
2023-03-31T16:49:17.213Z,1.24
2023-03-31T16:50:17.223Z,1.25
2023-03-31T16:51:17.201Z,1.26
2023-03-31T16:52:17.184Z,1.22
2023-03-31T16:53:17.372Z,1.23
2023-03-31T16:54:17.182Z,1.23
2023-03-31T16:55:17.174Z,1.22
2023-03-31T16:56:17.139Z,1.22
2023-03-31T16:57:17.196Z,1.22
2023-03-31T16:58:17.179Z,1.21
2023-03-31T16:59:17.236Z,1.24
2023-03-31T17:00:17.294Z,1.19
2023-03-31T17:01:17.395Z,1.20
2023-03-31T17:02:17.374Z,1.20
2023-03-31T17:03:17.443Z,1.19
2023-03-31T17:04:17.445Z,1.20
2023-03-31T17:05:17.547Z,1.18
2023-03-31T17:06:17.563Z,1.18
2023-03-31T17:07:17.621Z,1.17
2023-03-31T17:08:17.706Z,1.18
2023-03-31T17:09:17.758Z,1.19
2023-03-31T17:10:17.773Z,1.16
2023-03-31T17:11:17.839Z,1.16
2023-03-31T17:12:17.910Z,1.18
2023-03-31T17:13:17.953Z,1.17
2023-03-31T17:14:17.996Z,1.18
2023-03-31T17:15:18.076Z,1.16
2023-03-31T17:16:24.437Z,1.19
2023-03-31T17:17:19.137Z,1.20
2023-03-31T17:18:18.192Z,1.19
2023-03-31T17:19:18.105Z,1.17
2023-03-31T17:20:18.118Z,1.17
2023-03-31T17:21:18.066Z,1.14
2023-03-31T17:22:18.108Z,1.15
2023-03-31T17:23:18.288Z,1.14
2023-03-31T17:24:18.068Z,1.12
2023-03-31T17:25:18.082Z,1.14
2023-03-31T17:26:18.161Z,1.14
2023-03-31T17:27:18.229Z,1.11
2023-03-31T17:28:18.281Z,1.10
2023-03-31T17:29:18.338Z,1.12
2023-03-31T17:30:18.434Z,1.13
2023-03-31T17:31:18.490Z,1.12
2023-03-31T17:32:18.666Z,1.10
2023-03-31T17:33:18.628Z,1.13
2023-03-31T17:34:18.640Z,1.11
2023-03-31T17:35:18.711Z,1.10
2023-03-31T17:36:18.786Z,1.07
2023-03-31T17:37:18.920Z,1.09
2023-03-31T17:38:18.886Z,1.09
2023-03-31T17:39:18.948Z,1.08
2023-03-31T17:40:19.005Z,1.05
2023-03-31T17:41:19.099Z,1.10
2023-03-31T17:42:19.155Z,1.06
2023-03-31T17:43:19.201Z,1.07
2023-03-31T17:44:19.273Z,1.06
2023-03-31T17:45:19.295Z,1.07
2023-03-31T17:46:19.403Z,1.07
2023-03-31T17:47:19.421Z,1.08
2023-03-31T17:48:19.526Z,1.05
2023-03-31T17:49:19.559Z,1.06
2023-03-31T17:50:19.655Z,1.06
2023-03-31T17:51:19.683Z,1.06
2023-03-31T17:52:19.735Z,1.03
2023-03-31T17:53:19.795Z,1.04
2023-03-31T17:54:19.866Z,1.06
2023-03-31T17:55:19.898Z,1.06
2023-03-31T17:56:19.980Z,1.04
2023-03-31T17:57:20.104Z,1.05
2023-03-31T17:58:20.077Z,1.01
2023-03-31T17:59:20.118Z,1.05
2023-03-31T18:00:20.211Z,1.03
2023-03-31T18:01:20.307Z,1.04
2023-03-31T18:02:20.344Z,1.03
2023-03-31T18:03:20.361Z,1.03
2023-03-31T18:04:20.463Z,1.03
2023-03-31T18:05:20.489Z,1.02
2023-03-31T18:06:20.589Z,1.02
2023-03-31T18:07:20.636Z,0.99
2023-03-31T18:08:20.707Z,1.00
2023-03-31T18:09:20.756Z,0.99
2023-03-31T18:10:20.787Z,0.99
2023-03-31T18:11:20.826Z,0.98
2023-03-31T18:12:20.905Z,0.98
2023-03-31T18:13:20.941Z,0.99
2023-03-31T18:14:21.023Z,0.97
2023-03-31T18:15:21.088Z,0.94
2023-03-31T18:16:21.124Z,0.96
2023-03-31T18:17:21.210Z,0.95
2023-03-31T18:18:21.225Z,0.95
2023-03-31T18:19:21.251Z,0.96
2023-03-31T18:20:21.336Z,0.95
2023-03-31T18:21:21.394Z,0.91
2023-03-31T18:22:21.436Z,0.92
2023-03-31T18:23:21.530Z,0.91
2023-03-31T18:24:21.537Z,0.92
2023-03-31T18:25:21.700Z,0.92
2023-03-31T18:26:21.678Z,0.92
2023-03-31T18:27:23.172Z,0.95
2023-03-31T18:28:21.736Z,0.92
2023-03-31T18:29:21.733Z,0.93
2023-03-31T18:30:21.742Z,0.92
2023-03-31T18:31:21.741Z,0.92
2023-03-31T18:32:21.755Z,0.90
2023-03-31T18:33:21.864Z,0.92
2023-03-31T18:34:21.705Z,0.91
2023-03-31T18:35:21.772Z,0.90
2023-03-31T18:36:21.801Z,0.91
2023-03-31T18:37:21.708Z,0.91
2023-03-31T18:38:21.669Z,0.88
2023-03-31T18:39:21.658Z,0.89
2023-03-31T18:40:21.642Z,0.88
2023-03-31T18:41:21.668Z,0.89
2023-03-31T18:42:21.650Z,0.90
2023-03-31T18:43:21.678Z,0.90
2023-03-31T18:44:21.654Z,0.90
2023-03-31T18:45:21.637Z,0.88
2023-03-31T18:46:21.682Z,0.89
2023-03-31T18:47:21.636Z,0.88
2023-03-31T18:48:21.600Z,0.86
2023-03-31T18:49:21.594Z,0.87
2023-03-31T18:50:21.614Z,0.87
2023-03-31T18:51:21.569Z,0.87
2023-03-31T18:52:21.583Z,0.88
2023-03-31T18:53:21.595Z,0.85
2023-03-31T18:54:21.559Z,0.86
2023-03-31T18:55:21.595Z,0.85
2023-03-31T18:56:21.596Z,0.84
2023-03-31T18:57:21.719Z,0.86
2023-03-31T18:58:21.536Z,0.84
2023-03-31T18:59:21.577Z,0.83
2023-03-31T19:00:21.544Z,0.84
2023-03-31T19:01:21.563Z,0.84
2023-03-31T19:02:21.547Z,0.84
2023-03-31T19:03:21.572Z,0.81
2023-03-31T19:04:21.546Z,0.84
2023-03-31T19:05:21.502Z,0.83
2023-03-31T19:06:21.515Z,0.83
2023-03-31T19:07:21.523Z,0.83
2023-03-31T19:08:21.499Z,0.82
2023-03-31T19:09:21.503Z,0.83
2023-03-31T19:10:21.519Z,0.82
2023-03-31T19:11:21.472Z,0.81
2023-03-31T19:12:21.446Z,0.79
2023-03-31T19:13:21.433Z,0.81
2023-03-31T19:14:21.469Z,0.81
2023-03-31T19:15:21.451Z,0.81
2023-03-31T19:16:21.483Z,0.82
2023-03-31T19:17:21.448Z,0.80
2023-03-31T19:18:21.426Z,0.83
2023-03-31T19:19:21.432Z,0.80
2023-03-31T19:20:21.414Z,0.81
2023-03-31T19:21:21.419Z,0.81
2023-03-31T19:22:21.363Z,0.81
2023-03-31T19:23:21.413Z,0.80
2023-03-31T19:24:21.458Z,0.79
2023-03-31T19:25:21.450Z,0.79
2023-03-31T19:26:21.490Z,0.81
2023-03-31T19:27:21.506Z,0.80
2023-03-31T19:28:21.546Z,0.78
2023-03-31T19:29:21.622Z,0.79
2023-03-31T19:30:21.582Z,0.80
2023-03-31T19:31:21.608Z,0.79
2023-03-31T19:32:21.734Z,0.78
2023-03-31T19:33:21.681Z,0.79
2023-03-31T19:34:21.643Z,0.78
2023-03-31T19:35:21.683Z,0.78
2023-03-31T19:36:21.723Z,0.78
2023-03-31T19:37:21.709Z,0.78
2023-03-31T19:38:21.794Z,0.77
2023-03-31T19:39:21.772Z,0.79
2023-03-31T19:40:21.744Z,0.78
2023-03-31T19:41:21.764Z,0.78
2023-03-31T19:42:21.746Z,0.75
2023-03-31T19:43:21.793Z,0.78
2023-03-31T19:44:21.786Z,0.77
2023-03-31T19:45:21.818Z,0.77
2023-03-31T19:46:21.857Z,0.78
2023-03-31T19:47:21.921Z,0.78
2023-03-31T19:48:21.886Z,0.78
2023-03-31T19:49:21.898Z,0.77
2023-03-31T19:50:21.918Z,0.78
2023-03-31T19:51:21.953Z,0.77
2023-03-31T19:52:21.938Z,0.77
2023-03-31T19:53:21.935Z,0.77
2023-03-31T19:54:21.948Z,0.77
2023-03-31T19:55:22.587Z,0.76
2023-03-31T19:56:21.957Z,0.75
2023-03-31T19:57:22.052Z,0.76
2023-03-31T19:58:21.968Z,0.76
2023-03-31T19:59:21.996Z,0.77
2023-03-31T20:00:21.987Z,0.76
2023-03-31T20:01:22.110Z,0.77
2023-03-31T20:02:22.153Z,0.76
2023-03-31T20:03:22.078Z,0.74
2023-03-31T20:04:22.123Z,0.76
2023-03-31T20:05:21.997Z,0.76
2023-03-31T20:06:21.993Z,0.76
2023-03-31T20:07:22.047Z,0.75
2023-03-31T20:08:22.068Z,0.73
2023-03-31T20:09:22.116Z,0.74
2023-03-31T20:10:22.096Z,0.74
2023-03-31T20:11:22.286Z,0.76
2023-03-31T20:12:22.054Z,0.74
2023-03-31T20:13:22.060Z,0.73
2023-03-31T20:14:22.084Z,0.75
2023-03-31T20:15:22.083Z,0.74
2023-03-31T20:16:22.144Z,0.73
2023-03-31T20:17:22.120Z,0.73
2023-03-31T20:18:23.064Z,0.74
2023-03-31T20:19:22.115Z,0.73
2023-03-31T20:20:22.141Z,0.73
2023-03-31T20:21:22.144Z,0.73
2023-03-31T20:22:22.115Z,0.72
2023-03-31T20:23:22.144Z,0.72
2023-03-31T20:24:22.148Z,0.73
2023-03-31T20:25:22.159Z,0.73
2023-03-31T20:26:22.168Z,0.73
2023-03-31T20:27:22.184Z,0.72
2023-03-31T20:28:22.186Z,0.72
2023-03-31T20:29:22.223Z,0.72
2023-03-31T20:30:22.192Z,0.71
2023-03-31T20:31:22.236Z,0.72
2023-03-31T20:32:22.196Z,0.71
2023-03-31T20:33:22.184Z,0.71
2023-03-31T20:34:22.172Z,0.71
2023-03-31T20:35:22.155Z,0.72
2023-03-31T20:36:22.245Z,0.71
2023-03-31T20:37:22.142Z,0.71
2023-03-31T20:38:22.162Z,0.71
2023-03-31T20:39:22.214Z,0.72
2023-03-31T20:40:22.218Z,0.70
2023-03-31T20:41:22.186Z,0.70
2023-03-31T20:42:22.207Z,0.71
2023-03-31T20:43:22.220Z,0.70
2023-03-31T20:44:22.238Z,0.70
2023-03-31T20:45:22.215Z,0.71
2023-03-31T20:46:22.278Z,0.70
2023-03-31T20:47:22.296Z,0.70
2023-03-31T20:48:22.246Z,0.70
2023-03-31T20:49:22.287Z,0.71
2023-03-31T20:50:22.242Z,0.70
2023-03-31T20:51:22.245Z,0.70
2023-03-31T20:52:22.243Z,0.70
2023-03-31T20:53:22.260Z,0.69
2023-03-31T20:54:22.233Z,0.69
2023-03-31T20:55:22.248Z,0.69
2023-03-31T20:56:22.210Z,0.69
2023-03-31T20:57:22.253Z,0.70
2023-03-31T20:58:22.235Z,0.68
2023-03-31T20:59:22.216Z,0.69
2023-03-31T21:00:22.217Z,0.70
2023-03-31T21:01:22.309Z,0.68
2023-03-31T21:02:22.232Z,0.71
2023-03-31T21:03:22.265Z,0.70
2023-03-31T21:04:22.220Z,0.67
2023-03-31T21:05:22.187Z,0.68
2023-03-31T21:06:22.196Z,0.68
2023-03-31T21:07:22.204Z,0.68
2023-03-31T21:08:22.171Z,0.68
2023-03-31T21:09:22.204Z,0.68
2023-03-31T21:10:22.223Z,0.69
2023-03-31T21:11:22.164Z,0.68
2023-03-31T21:12:22.177Z,0.68
2023-03-31T21:13:22.194Z,0.68
2023-03-31T21:14:22.179Z,0.68
2023-03-31T21:15:22.203Z,0.68
2023-03-31T21:16:22.235Z,0.67
2023-03-31T21:17:22.279Z,0.67
2023-03-31T21:18:22.195Z,0.67
2023-03-31T21:19:22.214Z,0.66
2023-03-31T21:20:22.186Z,0.67
2023-03-31T21:21:22.172Z,0.67
2023-03-31T21:22:22.213Z,0.66
2023-03-31T21:23:22.204Z,0.66
2023-03-31T21:24:22.174Z,0.66
2023-03-31T21:25:22.218Z,0.66
2023-03-31T21:26:22.190Z,0.67
2023-03-31T21:27:22.225Z,0.66
2023-03-31T21:28:22.264Z,0.66
2023-03-31T21:29:22.170Z,0.66
2023-03-31T21:30:22.180Z,0.66
2023-03-31T21:31:22.151Z,0.66
2023-03-31T21:32:22.162Z,0.65
2023-03-31T21:33:22.141Z,0.65
2023-03-31T21:34:22.176Z,0.66
2023-03-31T21:35:22.160Z,0.65
2023-03-31T21:36:22.309Z,0.66
2023-03-31T21:37:22.133Z,0.64
2023-03-31T21:38:22.134Z,0.66
2023-03-31T21:39:22.161Z,0.64
2023-03-31T21:40:22.146Z,0.64
2023-03-31T21:41:22.130Z,0.64
2023-03-31T21:42:22.129Z,0.64
2023-03-31T21:43:22.143Z,0.64
2023-03-31T21:44:22.150Z,0.64
2023-03-31T21:45:22.108Z,0.66
2023-03-31T21:46:22.170Z,0.64
2023-03-31T21:47:22.081Z,0.63
2023-03-31T21:48:22.077Z,0.64
2023-03-31T21:49:22.079Z,0.64
2023-03-31T21:50:22.092Z,0.63
2023-03-31T21:51:22.140Z,0.62
2023-03-31T21:52:22.080Z,0.63
2023-03-31T21:53:22.088Z,0.62
2023-03-31T21:54:22.163Z,0.62
2023-03-31T21:55:22.047Z,0.63
2023-03-31T21:56:22.056Z,0.61
2023-03-31T21:57:22.116Z,0.62
2023-03-31T21:58:22.057Z,0.63
2023-03-31T21:59:22.043Z,0.62
2023-03-31T22:00:22.063Z,0.61
2023-03-31T22:01:22.125Z,0.62
2023-03-31T22:02:22.021Z,0.61
2023-03-31T22:03:27.105Z,0.62
2023-03-31T22:04:23.053Z,0.62
2023-03-31T22:05:22.016Z,0.62
2023-03-31T22:06:22.014Z,0.62
2023-03-31T22:07:22.010Z,0.62
2023-03-31T22:08:21.994Z,0.60
2023-03-31T22:09:22.068Z,0.61
2023-03-31T22:10:22.010Z,0.61
2023-03-31T22:11:21.994Z,0.60
2023-03-31T22:12:21.965Z,0.60
2023-03-31T22:13:21.982Z,0.60
2023-03-31T22:14:21.969Z,0.59
2023-03-31T22:15:21.964Z,0.61
2023-03-31T22:16:22.047Z,0.59
2023-03-31T22:17:21.992Z,0.60
2023-03-31T22:18:21.938Z,0.60
2023-03-31T22:19:21.946Z,0.59